createdAt,value
2019-01-24T19:42:13.015Z,34.43
2019-01-24T19:44:44.917Z,36.20
2019-01-24T19:47:16.852Z,37.63
2019-01-24T19:49:48.630Z,39.77
2019-01-24T19:52:20.358Z,41.67
2019-01-24T19:54:52.243Z,38.30
2019-01-24T19:57:24.035Z,41.70
2019-01-24T20:09:40.827Z,67.90
2019-01-24T20:12:12.827Z,165.77
2019-01-24T20:14:44.631Z,144.93
2019-01-24T20:17:16.664Z,294.17
2019-01-24T20:19:48.373Z,316.70
2019-01-24T20:22:21.536Z,236.20
2019-01-24T20:24:53.252Z,405.27
2019-01-24T20:27:24.969Z,309.47
2019-01-24T20:29:56.684Z,428.80
2019-01-24T20:32:28.358Z,254.37
2019-01-24T20:34:59.993Z,65.63
2019-01-24T20:37:31.757Z,241.57
2019-01-24T20:40:03.471Z,275.67
2019-01-24T20:42:35.253Z,292.47
2019-01-24T20:45:07.001Z,92.00
2019-01-24T20:47:38.707Z,159.47
2019-01-24T20:50:11.969Z,244.57
2019-01-24T20:52:44.825Z,309.70
2019-01-24T20:55:16.748Z,124.20
2019-01-24T20:57:48.488Z,87.20
2019-01-24T21:00:21.431Z,106.50
2019-01-24T21:02:53.428Z,76.80
2019-01-24T21:05:25.118Z,44.73
2019-01-24T21:07:56.777Z,33.87
2019-01-24T21:10:28.531Z,78.07
2019-01-24T21:13:01.216Z,71.10
2019-01-24T21:15:32.917Z,52.90
2019-01-24T21:18:04.574Z,23.77
2019-01-24T21:20:36.461Z,19.00
2019-01-24T21:23:08.251Z,20.77
2019-01-24T21:25:39.945Z,19.70
2019-01-24T21:28:11.773Z,27.87
2019-01-24T21:30:43.822Z,21.83
2019-01-24T21:33:15.491Z,21.63
2019-01-24T21:35:47.152Z,19.33
2019-01-24T21:38:18.807Z,19.77
2019-01-24T21:40:50.464Z,22.17
2019-01-24T21:43:22.113Z,21.63
2019-01-24T21:45:53.788Z,19.00
2019-01-24T21:48:25.438Z,17.00
2019-01-24T21:50:57.129Z,17.87
2019-01-24T22:05:30.808Z,11.47
2019-01-24T22:12:41.283Z,10.73
2019-01-24T22:44:00.680Z,16.77
2019-01-24T22:49:57.043Z,14.23
2019-01-24T22:52:28.776Z,16.07
2019-01-24T22:58:36.106Z,15.07
2019-01-24T23:08:09.448Z,13.57
2019-01-24T23:10:41.308Z,15.80
2019-01-24T23:13:13.109Z,15.80
2019-01-24T23:15:44.823Z,15.13
2019-01-24T23:18:19.005Z,15.60
2019-01-24T23:20:50.735Z,15.77
2019-01-24T23:23:23.873Z,14.77
2019-01-24T23:25:55.517Z,15.87
2019-01-24T23:28:27.199Z,15.97
2019-01-24T23:30:58.866Z,16.40
2019-01-24T23:33:49.059Z,14.83
2019-01-24T23:36:21.168Z,15.23
2019-01-24T23:40:12.438Z,16.70
2019-01-24T23:46:22.357Z,13.40
